createdAt,value
2024-02-24T00:00:21.745Z,97384.94
2024-02-24T00:02:49.426Z,97377.44
2024-02-24T00:05:16.948Z,97381.34
2024-02-24T00:07:44.399Z,97380.38
2024-02-24T00:10:13.210Z,97381.03
2024-02-24T00:12:40.726Z,97378.09
2024-02-24T00:15:09.011Z,97374.53
2024-02-24T00:17:37.920Z,97374.19
2024-02-24T00:20:06.968Z,97378.87
2024-02-24T00:22:36.902Z,97381.34
2024-02-24T00:25:04.933Z,97388.88
2024-02-24T00:27:32.319Z,97385.13
2024-02-24T00:29:59.890Z,97385.41
2024-02-24T00:32:29.354Z,97382.00
2024-02-24T00:34:58.009Z,97388.22
2024-02-24T00:37:25.749Z,97396.69
2024-02-24T00:39:54.045Z,97392.63
2024-02-24T00:42:21.469Z,97388.03
2024-02-24T00:44:48.913Z,97387.19
2024-02-24T00:47:16.666Z,97390.16
2024-02-24T00:49:44.095Z,97387.03
2024-02-24T00:52:11.552Z,97383.59
2024-02-24T00:54:39.259Z,97380.19
2024-02-24T00:57:06.876Z,97379.50
2024-02-24T00:59:34.329Z,97375.72
2024-02-24T01:02:02.119Z,97373.44
2024-02-24T01:04:30.756Z,97371.78
2024-02-24T01:06:59.285Z,97370.47
2024-02-24T01:09:27.240Z,97365.59
2024-02-24T01:11:54.797Z,97369.38
2024-02-24T01:14:22.355Z,97362.84
2024-02-24T01:16:50.098Z,97366.47
2024-02-24T01:19:18.659Z,97371.37
2024-02-24T01:21:46.141Z,97374.16
2024-02-24T01:24:14.557Z,97370.59
2024-02-24T01:26:42.353Z,97370.09
2024-02-24T01:29:09.803Z,97366.31
2024-02-24T01:31:37.004Z,97368.25
2024-02-24T01:34:04.599Z,97363.59
2024-02-24T01:36:32.881Z,97363.25
2024-02-24T01:39:00.609Z,97364.06
2024-02-24T01:41:31.927Z,97354.56
2024-02-24T01:44:01.322Z,97371.87
2024-02-24T01:46:29.487Z,97362.84
2024-02-24T01:48:56.608Z,97373.31
2024-02-24T01:51:23.548Z,97361.91
2024-02-24T01:53:50.954Z,97370.25
2024-02-24T01:56:19.125Z,97366.31
2024-02-24T01:58:46.381Z,97367.97
2024-02-24T02:01:13.361Z,97381.84
2024-02-24T02:03:40.587Z,97365.69
2024-02-24T02:06:09.067Z,97378.31
2024-02-24T02:08:36.365Z,97376.00
2024-02-24T02:11:04.172Z,97377.31
2024-02-24T02:13:32.478Z,97380.56
2024-02-24T02:16:00.395Z,97381.41
2024-02-24T02:18:28.987Z,97379.78
2024-02-24T02:20:58.358Z,97384.84
2024-02-24T02:23:25.442Z,97374.22
2024-02-24T02:25:52.613Z,97380.75
2024-02-24T02:28:19.549Z,97390.25
2024-02-24T02:30:48.331Z,97388.75
2024-02-24T02:33:15.748Z,97398.41
2024-02-24T02:35:42.825Z,97397.09
2024-02-24T02:38:11.500Z,97401.34
2024-02-24T02:40:38.788Z,97405.91
2024-02-24T02:43:06.335Z,97403.78
2024-02-24T02:45:34.276Z,97403.31
2024-02-24T02:48:01.617Z,97403.31
2024-02-24T02:50:30.476Z,97392.69
2024-02-24T02:52:57.616Z,97390.06
2024-02-24T02:55:25.314Z,97398.22
2024-02-24T02:57:52.244Z,97413.09
2024-02-24T03:00:19.402Z,97413.72
2024-02-24T03:02:47.836Z,97420.94
2024-02-24T03:05:17.169Z,97431.09
2024-02-24T03:07:46.265Z,97441.03
2024-02-24T03:10:13.776Z,97443.16
2024-02-24T03:12:40.879Z,97451.97
2024-02-24T03:15:09.180Z,97466.19
2024-02-24T03:17:36.522Z,97465.50
2024-02-24T03:20:04.822Z,97475.63
2024-02-24T03:22:34.015Z,97475.47
2024-02-24T03:25:01.290Z,97475.41
2024-02-24T03:27:29.255Z,97473.94
2024-02-24T03:29:56.165Z,97475.41
2024-02-24T03:32:23.427Z,97478.34
2024-02-24T03:34:52.296Z,97475.91
2024-02-24T03:37:19.748Z,97471.47
2024-02-24T03:39:46.912Z,97480.50
2024-02-24T03:42:14.358Z,97489.16
2024-02-24T03:44:41.905Z,97489.47
2024-02-24T03:47:09.232Z,97483.09
2024-02-24T03:49:37.857Z,97475.41
2024-02-24T03:52:06.420Z,97486.00
2024-02-24T03:54:35.535Z,97490.06
2024-02-24T03:57:02.990Z,97496.41
2024-02-24T03:59:30.042Z,97500.66
2024-02-24T04:01:57.352Z,97495.13
2024-02-24T04:04:26.033Z,97499.88
2024-02-24T04:06:56.423Z,97500.03
2024-02-24T04:09:23.378Z,97505.09
2024-02-24T04:11:53.381Z,97493.97
2024-02-24T04:14:21.021Z,97490.16
2024-02-24T04:16:48.209Z,97493.37
2024-02-24T04:19:16.025Z,97498.91
2024-02-24T04:21:43.026Z,97489.25
2024-02-24T04:24:10.526Z,97492.06
2024-02-24T04:26:37.723Z,97498.94
2024-02-24T04:29:05.149Z,97502.25
2024-02-24T04:31:32.804Z,97498.12
2024-02-24T04:34:00.254Z,97500.09
2024-02-24T04:36:29.075Z,97509.53
2024-02-24T04:38:56.499Z,97505.97
2024-02-24T04:41:23.702Z,97501.06
2024-02-24T04:43:51.145Z,97498.84
2024-02-24T04:46:19.453Z,97505.72
2024-02-24T04:48:47.188Z,97500.09
2024-02-24T04:51:14.680Z,97515.41
2024-02-24T04:53:42.132Z,97506.94
2024-02-24T04:56:12.684Z,97509.63
2024-02-24T04:58:39.674Z,97512.91
2024-02-24T05:01:06.624Z,97509.41
2024-02-24T05:03:35.518Z,97512.97
2024-02-24T05:06:02.546Z,97515.72
2024-02-24T05:08:30.109Z,97513.34
2024-02-24T05:10:59.626Z,97517.31
2024-02-24T05:13:27.255Z,97515.06
2024-02-24T05:15:54.318Z,97507.75
2024-02-24T05:18:22.141Z,97507.41
2024-02-24T05:20:49.521Z,97523.72
2024-02-24T05:23:17.434Z,97541.16
2024-02-24T05:25:49.514Z,97539.06
2024-02-24T05:28:16.637Z,97543.00
2024-02-24T05:30:43.633Z,97543.59
2024-02-24T05:33:11.503Z,97562.03
2024-02-24T05:35:39.047Z,97566.50
2024-02-24T05:38:08.652Z,97568.75
2024-02-24T05:40:36.445Z,97578.50
2024-02-24T05:43:04.274Z,97585.34
2024-02-24T05:45:31.719Z,97591.16
2024-02-24T05:47:59.040Z,97591.31
2024-02-24T05:50:26.548Z,97590.78
2024-02-24T05:52:54.039Z,97599.25
2024-02-24T05:55:22.068Z,97595.31
2024-02-24T05:57:49.513Z,97594.78
2024-02-24T06:00:17.738Z,97595.94
2024-02-24T06:02:44.998Z,97587.38
2024-02-24T06:05:15.893Z,97596.97
2024-02-24T06:07:43.449Z,97616.03
2024-02-24T06:10:17.003Z,97627.12
2024-02-24T06:12:44.394Z,97643.84
2024-02-24T06:15:12.795Z,97639.81
2024-02-24T06:17:43.205Z,97635.78
2024-02-24T06:20:11.167Z,97640.88
2024-02-24T06:22:38.532Z,97641.97
2024-02-24T06:25:07.629Z,97650.41
2024-02-24T06:27:34.642Z,97651.00
2024-02-24T06:30:02.438Z,97651.16
2024-02-24T06:32:30.056Z,97640.19
2024-02-24T06:34:57.200Z,97647.78
2024-02-24T06:37:26.874Z,97654.50
2024-02-24T06:39:58.888Z,97655.91
2024-02-24T06:42:26.024Z,97667.44
2024-02-24T06:44:52.997Z,97675.66
2024-02-24T06:47:28.387Z,97677.53
2024-02-24T06:49:56.615Z,97676.53
2024-02-24T06:52:24.347Z,97676.69
2024-02-24T06:54:52.880Z,97679.53
2024-02-24T06:57:20.620Z,97674.41
2024-02-24T06:59:48.233Z,97680.12
2024-02-24T07:02:17.030Z,97683.19
2024-02-24T07:04:45.547Z,97692.81
2024-02-24T07:07:14.779Z,97695.41
2024-02-24T07:09:45.000Z,97701.13
2024-02-24T07:12:14.166Z,97698.31
2024-02-24T07:14:44.217Z,97704.75
2024-02-24T07:17:11.546Z,97712.78
2024-02-24T07:19:41.032Z,97710.19
2024-02-24T07:22:08.495Z,97714.03
2024-02-24T07:24:35.929Z,97716.91
2024-02-24T07:27:03.933Z,97728.63
2024-02-24T07:29:32.599Z,97736.06
2024-02-24T07:32:01.409Z,97742.56
2024-02-24T07:34:29.311Z,97753.72
2024-02-24T07:36:56.324Z,97755.00
2024-02-24T07:39:23.874Z,97763.06
2024-02-24T07:41:51.076Z,97755.16
2024-02-24T07:44:19.964Z,97769.66
2024-02-24T07:46:48.274Z,97775.47
2024-02-24T07:49:15.501Z,97772.06
2024-02-24T07:51:53.405Z,97762.69
2024-02-24T07:54:24.849Z,97765.84
2024-02-24T07:56:53.034Z,97773.94
2024-02-24T07:59:20.830Z,97785.91
2024-02-24T08:01:48.314Z,97783.44
2024-02-24T08:04:16.401Z,97787.06
2024-02-24T08:06:44.982Z,97786.59
2024-02-24T08:09:12.445Z,97783.00
2024-02-24T08:11:41.870Z,97771.72
2024-02-24T08:14:10.150Z,97779.88
2024-02-24T08:16:37.621Z,97799.84
2024-02-24T08:19:07.993Z,97804.78
2024-02-24T08:21:38.551Z,97805.91
2024-02-24T08:24:11.113Z,97806.41
2024-02-24T08:26:41.192Z,97808.72
2024-02-24T08:29:12.951Z,97802.84
2024-02-24T08:31:40.239Z,97802.97
2024-02-24T08:34:08.379Z,97802.44
2024-02-24T08:36:36.598Z,97813.50
2024-02-24T08:39:05.540Z,97812.87
2024-02-24T08:41:34.811Z,97819.91
2024-02-24T08:44:05.495Z,97828.59
2024-02-24T08:46:37.211Z,97825.12
2024-02-24T08:49:06.224Z,97822.97
2024-02-24T08:51:34.273Z,97826.50
2024-02-24T08:54:01.702Z,97830.09
2024-02-24T08:56:32.769Z,97834.28
2024-02-24T08:59:02.025Z,97845.09
2024-02-24T09:01:31.522Z,97842.78
2024-02-24T09:04:01.103Z,97841.50
2024-02-24T09:06:29.595Z,97852.44
2024-02-24T09:08:57.132Z,97854.78
2024-02-24T09:11:26.864Z,97851.28
2024-02-24T09:14:00.102Z,97862.16
2024-02-24T09:16:27.826Z,97857.66
2024-02-24T09:18:54.921Z,97864.75
2024-02-24T09:21:22.604Z,97858.41
2024-02-24T09:23:50.468Z,97864.06
2024-02-24T09:26:18.072Z,97870.56
2024-02-24T09:28:45.555Z,97870.81
2024-02-24T09:31:13.427Z,97882.72
2024-02-24T09:33:40.926Z,97887.25
2024-02-24T09:36:09.082Z,97889.25
2024-02-24T09:38:38.286Z,97887.41
2024-02-24T09:41:11.756Z,97894.12
2024-02-24T09:43:39.124Z,97893.03
2024-02-24T09:46:06.960Z,97901.78
2024-02-24T09:48:34.048Z,97905.84
2024-02-24T09:51:01.436Z,97918.84
2024-02-24T09:53:28.947Z,97916.12
2024-02-24T09:55:57.968Z,97921.84
2024-02-24T09:58:26.143Z,97928.22
2024-02-24T10:00:53.659Z,97926.41
2024-02-24T10:03:23.233Z,97924.41
2024-02-24T10:05:51.139Z,97938.13
2024-02-24T10:08:21.609Z,97938.00
2024-02-24T10:10:48.828Z,97944.66
2024-02-24T10:13:20.624Z,97945.00
2024-02-24T10:15:47.706Z,97942.00
2024-02-24T10:18:19.321Z,97938.19
2024-02-24T10:20:46.475Z,97939.19
2024-02-24T10:23:14.251Z,97934.75
2024-02-24T10:25:42.350Z,97936.09
2024-02-24T10:28:11.796Z,97940.28
2024-02-24T10:30:40.240Z,97941.03
2024-02-24T10:33:07.548Z,97942.50
2024-02-24T10:35:35.711Z,97949.19
2024-02-24T10:38:17.733Z,97936.16
2024-02-24T10:40:53.526Z,97948.78
2024-02-24T10:43:21.914Z,97949.13
2024-02-24T10:45:49.319Z,97955.66
2024-02-24T10:48:22.247Z,97953.88
2024-02-24T10:50:52.454Z,97956.53
2024-02-24T10:53:28.470Z,97956.06
2024-02-24T10:55:57.957Z,97950.31
2024-02-24T10:58:26.903Z,97958.44
2024-02-24T11:00:56.086Z,97954.66
2024-02-24T11:03:24.262Z,97947.94
2024-02-24T11:05:52.324Z,97949.31
2024-02-24T11:08:36.318Z,97949.94
2024-02-24T11:11:05.241Z,97943.13
2024-02-24T11:13:33.547Z,97948.09
2024-02-24T11:16:01.134Z,97948.94
2024-02-24T11:18:50.847Z,97955.41
2024-02-24T11:21:18.581Z,97942.66
2024-02-24T11:23:49.177Z,97950.03
2024-02-24T11:26:22.987Z,97946.41
2024-02-24T11:29:04.733Z,97948.03
2024-02-24T11:31:43.312Z,97950.03
2024-02-24T11:34:13.719Z,97947.50
2024-02-24T11:36:48.128Z,97947.75
2024-02-24T11:39:16.825Z,97953.22
2024-02-24T11:41:44.604Z,97947.22
2024-02-24T11:44:12.556Z,97954.50
2024-02-24T11:46:41.946Z,97960.31
2024-02-24T11:49:11.631Z,97962.66
2024-02-24T11:51:40.386Z,97961.41
2024-02-24T11:54:09.881Z,97970.94
2024-02-24T11:56:38.512Z,97972.38
2024-02-24T11:59:07.930Z,97980.28
2024-02-24T12:01:38.534Z,97980.09
2024-02-24T12:04:10.424Z,97981.00
2024-02-24T12:06:39.064Z,97991.09
2024-02-24T12:09:08.028Z,97989.28
2024-02-24T12:11:38.414Z,97985.69
2024-02-24T12:14:07.243Z,97982.50
2024-02-24T12:16:35.310Z,97975.00
2024-02-24T12:19:05.682Z,97980.34
2024-02-24T12:21:33.232Z,97985.88
2024-02-24T12:24:01.080Z,97987.88
2024-02-24T12:26:29.209Z,97987.00
2024-02-24T12:28:57.832Z,97986.72
2024-02-24T12:31:25.627Z,97993.06
2024-02-24T12:33:52.631Z,97991.63
2024-02-24T12:36:20.160Z,97996.25
2024-02-24T12:38:49.411Z,97996.06
2024-02-24T12:41:16.449Z,97999.47
2024-02-24T12:43:44.542Z,97991.38
2024-02-24T12:46:11.791Z,97994.28
2024-02-24T12:48:43.621Z,97995.13
2024-02-24T12:51:12.957Z,98000.69
2024-02-24T12:53:42.708Z,97992.00
2024-02-24T12:56:14.669Z,97992.88
2024-02-24T12:58:45.012Z,98003.19
2024-02-24T13:01:14.511Z,98003.81
2024-02-24T13:03:42.332Z,98005.28
2024-02-24T13:06:10.437Z,98007.75
2024-02-24T13:08:37.506Z,98006.34
2024-02-24T13:11:05.099Z,98004.44
2024-02-24T13:13:41.151Z,98012.34
2024-02-24T13:16:08.922Z,98009.91
2024-02-24T13:18:37.012Z,98018.56
2024-02-24T13:21:06.724Z,98015.94
2024-02-24T13:23:33.967Z,98006.03
2024-02-24T13:26:02.532Z,98012.00
2024-02-24T13:28:31.812Z,98012.56
2024-02-24T13:30:59.510Z,98016.72
2024-02-24T13:33:29.258Z,98016.72
2024-02-24T13:35:56.314Z,98019.28
2024-02-24T13:38:23.594Z,98015.75
2024-02-24T13:40:52.599Z,98014.38
2024-02-24T13:43:19.825Z,98017.75
2024-02-24T13:45:47.211Z,98028.00
2024-02-24T13:48:14.328Z,98017.47
2024-02-24T13:50:43.698Z,98018.66
2024-02-24T13:53:12.657Z,98020.22
2024-02-24T13:55:39.822Z,98018.03
2024-02-24T13:58:07.896Z,98025.78
2024-02-24T14:00:35.185Z,98019.53
2024-02-24T14:03:03.773Z,98019.47
2024-02-24T14:05:31.037Z,98020.75
2024-02-24T14:07:59.600Z,98026.22
2024-02-24T14:10:26.779Z,98025.09
2024-02-24T14:12:55.850Z,98026.00
2024-02-24T14:15:23.160Z,98030.59
2024-02-24T14:17:50.841Z,98040.41
2024-02-24T14:20:23.258Z,98034.84
2024-02-24T14:23:00.577Z,98035.22
2024-02-24T14:25:31.291Z,98037.19
2024-02-24T14:28:00.787Z,98032.09
2024-02-24T14:30:28.237Z,98034.91
2024-02-24T14:33:03.836Z,98038.56
2024-02-24T14:35:33.445Z,98038.75
2024-02-24T14:38:04.381Z,98038.62
2024-02-24T14:40:31.582Z,98041.38
2024-02-24T14:42:59.310Z,98037.34
2024-02-24T14:45:26.753Z,98042.72
2024-02-24T14:47:55.948Z,98037.75
2024-02-24T14:50:23.594Z,98038.50
2024-02-24T14:52:51.068Z,98040.16
2024-02-24T14:55:19.751Z,98043.47
2024-02-24T14:57:47.583Z,98046.72
2024-02-24T15:00:16.059Z,98052.78
2024-02-24T15:02:52.748Z,98052.31
2024-02-24T15:05:31.815Z,98048.50
2024-02-24T15:08:03.188Z,98044.09
2024-02-24T15:10:30.716Z,98038.38
2024-02-24T15:12:58.175Z,98052.06
2024-02-24T15:15:27.782Z,98054.88
2024-02-24T15:18:14.621Z,98059.94
2024-02-24T15:20:41.885Z,98063.31
2024-02-24T15:23:08.881Z,98056.63
2024-02-24T15:25:36.786Z,98058.47
2024-02-24T15:28:04.204Z,98054.06
2024-02-24T15:30:31.119Z,98057.53
2024-02-24T15:33:06.240Z,98059.19
2024-02-24T15:35:33.485Z,98065.13
2024-02-24T15:38:00.404Z,98059.88
2024-02-24T15:40:29.523Z,98058.91
2024-02-24T15:42:58.534Z,98055.47
2024-02-24T15:45:26.063Z,98064.69
2024-02-24T15:47:53.119Z,98072.41
2024-02-24T15:50:23.072Z,98071.41
2024-02-24T15:52:51.728Z,98075.66
2024-02-24T15:55:20.078Z,98081.34
2024-02-24T15:57:49.078Z,98079.84
2024-02-24T16:00:17.200Z,98077.25
2024-02-24T16:02:45.114Z,98078.06
2024-02-24T16:05:12.248Z,98079.84
2024-02-24T16:07:42.581Z,98090.84
2024-02-24T16:10:10.494Z,98089.00
2024-02-24T16:12:39.682Z,98088.00
2024-02-24T16:15:09.886Z,98095.72
2024-02-24T16:17:38.231Z,98104.38
2024-02-24T16:20:06.393Z,98101.13
2024-02-24T16:22:42.387Z,98099.12
2024-02-24T16:25:14.025Z,98100.78
2024-02-24T16:27:41.513Z,98117.09
2024-02-24T16:30:09.536Z,98112.72
2024-02-24T16:32:38.338Z,98117.97
2024-02-24T16:35:06.696Z,98127.63
2024-02-24T16:37:34.171Z,98116.13
2024-02-24T16:40:01.377Z,98115.50
2024-02-24T16:42:29.473Z,98127.31
2024-02-24T16:45:00.251Z,98131.41
2024-02-24T16:47:27.655Z,98129.09
2024-02-24T16:49:54.764Z,98126.78
2024-02-24T16:52:24.245Z,98140.09
2024-02-24T16:54:51.488Z,98141.16
2024-02-24T16:57:18.497Z,98137.03
2024-02-24T16:59:45.514Z,98144.22
2024-02-24T17:02:12.748Z,98141.00
2024-02-24T17:04:40.758Z,98146.22
2024-02-24T17:07:08.785Z,98148.66
2024-02-24T17:09:35.987Z,98155.50
2024-02-24T17:12:03.959Z,98153.31
2024-02-24T17:14:31.501Z,98161.31
2024-02-24T17:16:58.693Z,98159.44
2024-02-24T17:19:27.667Z,98170.91
2024-02-24T17:21:56.131Z,98173.13
2024-02-24T17:24:23.465Z,98175.28
2024-02-24T17:26:55.787Z,98177.09
2024-02-24T17:29:23.402Z,98178.13
2024-02-24T17:31:52.307Z,98178.72
2024-02-24T17:34:20.654Z,98177.22
2024-02-24T17:36:49.959Z,98183.25
2024-02-24T17:39:17.472Z,98180.91
2024-02-24T17:41:49.224Z,98186.13
2024-02-24T17:44:18.386Z,98182.22
2024-02-24T17:46:45.365Z,98183.38
2024-02-24T17:49:14.285Z,98185.72
2024-02-24T17:51:41.657Z,98174.75
2024-02-24T17:54:09.229Z,98183.56
2024-02-24T17:56:43.596Z,98184.00
2024-02-24T17:59:11.344Z,98188.84
2024-02-24T18:01:39.663Z,98191.19
2024-02-24T18:04:08.463Z,98189.59
2024-02-24T18:06:35.610Z,98198.09
2024-02-24T18:09:06.622Z,98189.72
2024-02-24T18:11:35.332Z,98183.81
2024-02-24T18:14:02.792Z,98186.53
2024-02-24T18:16:31.546Z,98190.62
2024-02-24T18:18:59.303Z,98188.75
2024-02-24T18:21:26.306Z,98187.63
2024-02-24T18:23:53.832Z,98189.59
2024-02-24T18:26:21.206Z,98189.91
2024-02-24T18:28:48.816Z,98183.59
2024-02-24T18:31:15.704Z,98187.59
2024-02-24T18:33:45.544Z,98193.00
2024-02-24T18:36:13.070Z,98192.06
2024-02-24T18:38:40.104Z,98195.78
2024-02-24T18:41:08.638Z,98187.56
2024-02-24T18:43:35.554Z,98187.00
2024-02-24T18:46:04.044Z,98185.38
2024-02-24T18:48:31.885Z,98190.03
2024-02-24T18:51:00.886Z,98187.28
2024-02-24T18:53:32.438Z,98197.22
2024-02-24T18:56:19.983Z,98203.81
2024-02-24T18:58:47.442Z,98205.22
2024-02-24T19:01:14.632Z,98199.44
2024-02-24T19:03:42.168Z,98203.84
2024-02-24T19:06:09.987Z,98218.81
2024-02-24T19:08:40.956Z,98216.50
2024-02-24T19:11:17.372Z,98215.25
2024-02-24T19:13:44.614Z,98208.94
2024-02-24T19:16:11.750Z,98207.41
2024-02-24T19:18:39.065Z,98209.34
2024-02-24T19:21:08.378Z,98215.38
2024-02-24T19:23:38.017Z,98208.78
2024-02-24T19:26:09.060Z,98203.84
2024-02-24T19:28:36.236Z,98209.34
2024-02-24T19:31:03.267Z,98214.84
2024-02-24T19:33:30.479Z,98210.75
2024-02-24T19:35:58.117Z,98215.28
2024-02-24T19:38:25.179Z,98215.97
2024-02-24T19:40:52.144Z,98216.75
2024-02-24T19:43:19.420Z,98218.72
2024-02-24T19:45:47.684Z,98218.03
2024-02-24T19:48:15.307Z,98221.06
2024-02-24T19:50:48.476Z,98223.25
2024-02-24T19:53:15.451Z,98226.53
2024-02-24T19:55:42.818Z,98234.09
2024-02-24T19:58:21.275Z,98223.69
2024-02-24T20:00:58.096Z,98220.62
2024-02-24T20:03:26.266Z,98225.87
2024-02-24T20:05:53.092Z,98231.09
2024-02-24T20:08:20.057Z,98231.09
2024-02-24T20:10:47.142Z,98224.63
2024-02-24T20:13:17.033Z,98211.31
2024-02-24T20:15:44.011Z,98208.66
2024-02-24T20:18:12.128Z,98215.84
2024-02-24T20:20:39.548Z,98218.16
2024-02-24T20:23:08.951Z,98209.47
2024-02-24T20:25:36.360Z,98213.06
2024-02-24T20:28:04.889Z,98216.34
2024-02-24T20:30:32.321Z,98207.00
2024-02-24T20:32:59.803Z,98212.34
2024-02-24T20:35:30.020Z,98220.72
2024-02-24T20:37:57.582Z,98220.59
2024-02-24T20:40:26.933Z,98217.84
2024-02-24T20:42:59.736Z,98221.28
2024-02-24T20:45:27.071Z,98225.69
2024-02-24T20:47:53.941Z,98230.09
2024-02-24T20:50:23.106Z,98227.75
2024-02-24T20:52:50.625Z,98217.31
2024-02-24T20:55:17.601Z,98224.44
2024-02-24T20:57:45.779Z,98228.00
2024-02-24T21:00:13.702Z,98234.59
2024-02-24T21:02:41.748Z,98238.72
2024-02-24T21:05:09.586Z,98235.59
2024-02-24T21:07:38.810Z,98238.44
2024-02-24T21:10:08.118Z,98241.19
2024-02-24T21:12:35.756Z,98250.25
2024-02-24T21:15:02.692Z,98252.72
2024-02-24T21:17:31.083Z,98258.75
2024-02-24T21:20:04.466Z,98253.53
2024-02-24T21:22:35.172Z,98256.28
2024-02-24T21:25:02.584Z,98248.03
2024-02-24T21:27:30.090Z,98247.47
2024-02-24T21:29:56.951Z,98251.88
2024-02-24T21:32:24.323Z,98241.44
2024-02-24T21:34:51.243Z,98254.75
2024-02-24T21:37:21.850Z,98257.63
2024-02-24T21:39:49.365Z,98263.78
2024-02-24T21:42:18.569Z,98275.19
2024-02-24T21:44:45.382Z,98270.34
2024-02-24T21:47:14.316Z,98264.44
2024-02-24T21:49:41.429Z,98266.94
2024-02-24T21:52:11.120Z,98259.25
2024-02-24T21:54:37.896Z,98271.34
2024-02-24T21:57:04.917Z,98266.94
2024-02-24T21:59:31.781Z,98258.44
2024-02-24T22:02:00.627Z,98256.09
2024-02-24T22:04:31.543Z,98266.91
2024-02-24T22:06:58.594Z,98260.44
2024-02-24T22:09:25.596Z,98265.50
2024-02-24T22:11:52.896Z,98253.66
2024-02-24T22:14:22.955Z,98259.94
2024-02-24T22:16:50.426Z,98252.94
2024-02-24T22:19:19.143Z,98252.81
2024-02-24T22:21:46.645Z,98257.22
2024-02-24T22:24:13.648Z,98254.22
2024-02-24T22:26:46.721Z,98258.63
2024-02-24T22:29:13.885Z,98260.28
2024-02-24T22:31:42.602Z,98260.81
2024-02-24T22:34:09.582Z,98258.47
2024-02-24T22:36:36.609Z,98252.78
2024-02-24T22:39:06.350Z,98253.53
2024-02-24T22:41:34.149Z,98257.41
2024-02-24T22:44:01.155Z,98258.84
2024-02-24T22:46:31.598Z,98252.94
2024-02-24T22:48:58.949Z,98247.06
2024-02-24T22:51:27.138Z,98245.00
2024-02-24T22:53:54.933Z,98243.19
2024-02-24T22:56:25.279Z,98246.78
2024-02-24T22:58:56.114Z,98241.63
2024-02-24T23:04:54.205Z,98230.88
2024-02-24T23:07:21.451Z,98242.13
2024-02-24T23:09:49.997Z,98236.09
2024-02-24T23:12:19.530Z,98236.69
2024-02-24T23:14:47.400Z,98250.53
2024-02-24T23:17:18.146Z,98255.59
2024-02-24T23:19:45.924Z,98251.22
2024-02-24T23:22:21.255Z,98247.25
2024-02-24T23:24:48.691Z,98245.31
2024-02-24T23:27:16.840Z,98254.22
2024-02-24T23:29:44.293Z,98255.75
2024-02-24T23:32:12.303Z,98256.56
2024-02-24T23:34:40.268Z,98250.78
2024-02-24T23:37:07.841Z,98246.78
2024-02-24T23:39:35.233Z,98243.91
2024-02-24T23:42:03.127Z,98250.06
2024-02-24T23:44:32.201Z,98246.25
2024-02-24T23:46:59.714Z,98247.31
2024-02-24T23:49:27.555Z,98249.38
2024-02-24T23:51:55.027Z,98248.09
2024-02-24T23:54:22.519Z,98241.22
2024-02-24T23:56:50.229Z,98247.28
2024-02-24T23:59:17.187Z,98248.91
